Time,TemperatureF,DewpointF,PressureIn,WindDirection,WindDirectionDegrees,WindSpeedMPH,WindSpeedGustMPH,Humidity,HourlyPrecipIn,Conditions,Clouds,dailyrainin,SoftwareType,DateUTC
2013-08-05 00:01:00,66.8,54.2,28.02,NE,45,0.0,0.0,64,-99.99,,,-99.99,WSDL version 420,2013-08-05 04:01:00,
2013-08-05 00:06:00,66.7,54.6,27.99,NE,45,0.0,0.0,65,-99.99,,,-99.99,WSDL version 420,2013-08-05 04:06:00,
2013-08-05 00:11:00,66.6,54.2,27.99,NE,45,0.0,0.0,65,-99.99,,,-99.99,WSDL version 420,2013-08-05 04:11:00,
2013-08-05 00:16:00,66.6,54.4,27.99,NE,45,0.0,0.0,65,-99.99,,,-99.99,WSDL version 420,2013-08-05 04:16:00,
2013-08-05 00:21:00,66.6,54.6,27.99,NE,45,0.0,0.0,66,-99.99,,,-99.99,WSDL version 420,2013-08-05 04:21:00,
2013-08-05 00:26:00,66.7,54.8,27.99,NE,45,0.0,0.0,65,-99.99,,,-99.99,WSDL version 420,2013-08-05 04:26:00,
2013-08-05 00:31:00,66.6,54.4,27.99,NE,45,0.0,0.0,65,-99.99,,,-99.99,WSDL version 420,2013-08-05 04:31:00,
2013-08-05 00:36:00,66.6,54.4,28.02,NE,45,0.0,0.0,65,-99.99,,,-99.99,WSDL version 420,2013-08-05 04:36:00,
2013-08-05 00:41:00,66.6,54.4,28.02,NE,45,0.0,0.0,65,-99.99,,,-99.99,WSDL version 420,2013-08-05 04:41:00,
2013-08-05 00:47:00,66.6,54.4,28.02,NE,45,0.0,0.0,65,0.00,,,0.00,WSDL version 420,2013-08-05 04:47:00,
2013-08-05 00:57:00,66.2,54.1,28.02,NE,45,0.0,0.0,65,-99.99,,,-99.99,WSDL version 420,2013-08-05 04:57:00,
2013-08-05 01:06:00,65.8,54.2,28.02,NE,45,0.0,0.0,66,-99.99,,,-99.99,WSDL version 420,2013-08-05 05:06:00,
2013-08-05 01:11:00,65.8,54.2,28.02,NE,45,0.0,0.0,66,-99.99,,,-99.99,WSDL version 420,2013-08-05 05:11:00,
2013-08-05 01:16:00,65.8,54.2,28.02,SSE,158,0.0,0.0,66,-99.99,,,-99.99,WSDL version 420,2013-08-05 05:16:00,
2013-08-05 01:21:00,65.8,54.1,28.02,NNE,30,0.0,0.0,66,-99.99,,,-99.99,WSDL version 420,2013-08-05 05:21:00,
2013-08-05 01:26:00,65.8,54.1,28.02,NNE,23,0.0,0.0,66,-99.99,,,-99.99,WSDL version 420,2013-08-05 05:26:00,
2013-08-05 01:31:00,65.8,54.2,28.02,NE,45,0.0,0.0,66,-99.99,,,-99.99,WSDL version 420,2013-08-05 05:31:00,
2013-08-05 01:36:00,65.8,54.3,28.02,ENE,68,0.0,0.0,67,-99.99,,,-99.99,WSDL version 420,2013-08-05 05:36:00,
2013-08-05 01:46:00,65.5,54.2,27.99,NE,45,0.0,0.0,67,0.00,,,0.00,WSDL version 420,2013-08-05 05:46:00,
2013-08-05 01:51:00,65.5,54.5,27.99,NE,45,0.0,0.0,68,0.00,,,0.00,WSDL version 420,2013-08-05 05:51:00,
2013-08-05 01:56:00,65.4,54.2,27.99,NE,45,0.0,0.0,67,0.00,,,0.00,WSDL version 420,2013-08-05 05:56:00,
2013-08-05 02:06:00,64.8,53.8,27.99,NE,45,0.0,0.0,68,0.00,,,0.00,WSDL version 420,2013-08-05 06:06:00,
2013-08-05 02:11:00,64.8,54.0,27.99,NE,45,0.0,0.0,68,-99.99,,,-99.99,WSDL version 420,2013-08-05 06:11:00,
2013-08-05 02:16:00,64.8,54.0,27.99,NE,45,0.0,0.0,68,-99.99,,,-99.99,WSDL version 420,2013-08-05 06:16:00,
2013-08-05 02:21:00,64.8,54.2,28.02,NE,45,0.0,0.0,69,0.00,,,0.00,WSDL version 420,2013-08-05 06:21:00,
2013-08-05 02:26:00,64.8,54.4,28.02,NE,45,0.0,0.0,69,-99.99,,,-99.99,WSDL version 420,2013-08-05 06:26:00,
2013-08-05 02:31:00,64.8,54.4,28.02,NE,45,0.0,0.0,69,0.00,,,0.00,WSDL version 420,2013-08-05 06:31:00,
2013-08-05 02:36:00,64.8,54.4,28.02,NE,45,0.0,0.0,69,-99.99,,,-99.99,WSDL version 420,2013-08-05 06:36:00,
2013-08-05 02:41:00,64.7,54.3,28.02,NE,45,0.0,0.0,69,0.00,,,0.00,WSDL version 420,2013-08-05 06:41:00,
2013-08-05 02:46:00,64.6,54.2,28.02,NE,45,0.0,0.0,69,0.00,,,0.00,WSDL version 420,2013-08-05 06:46:00,
2013-08-05 02:52:00,64.6,54.3,27.99,NE,45,0.0,0.0,70,0.00,,,0.00,WSDL version 420,2013-08-05 06:52:00,
2013-08-05 03:01:00,64.5,54.5,27.99,NE,45,0.0,0.0,70,-99.99,,,-99.99,WSDL version 420,2013-08-05 07:01:00,
2013-08-05 03:06:00,64.4,54.4,27.99,NE,45,0.0,0.0,70,-99.99,,,-99.99,WSDL version 420,2013-08-05 07:06:00,
2013-08-05 03:16:00,64.0,54.1,27.99,NE,45,0.0,0.0,70,-99.99,,,-99.99,WSDL version 420,2013-08-05 07:16:00,
2013-08-05 03:21:00,63.4,53.7,27.99,NE,45,0.0,0.0,71,-99.99,,,-99.99,WSDL version 420,2013-08-05 07:21:00,
2013-08-05 03:31:00,63.6,54.1,27.99,East,90,0.0,0.0,71,0.00,,,0.00,WSDL version 420,2013-08-05 07:31:00,
2013-08-05 03:41:00,63.7,54.2,27.99,East,90,0.0,0.0,71,-99.99,,,-99.99,WSDL version 420,2013-08-05 07:41:00,
2013-08-05 03:46:00,63.9,54.3,27.99,East,90,0.0,0.0,71,-99.99,,,-99.99,WSDL version 420,2013-08-05 07:46:00,
2013-08-05 03:51:00,63.8,54.2,27.99,East,90,0.0,0.0,71,0.00,,,0.00,WSDL version 420,2013-08-05 07:51:00,
2013-08-05 03:56:00,63.8,54.2,27.99,East,90,0.0,0.0,71,-99.99,,,-99.99,WSDL version 420,2013-08-05 07:56:00,
2013-08-05 04:01:00,63.7,54.2,27.99,ENE,68,0.0,0.0,71,-99.99,,,-99.99,WSDL version 420,2013-08-05 08:01:00,
2013-08-05 04:06:00,63.6,54.1,27.99,NE,45,0.0,0.0,71,-99.99,,,-99.99,WSDL version 420,2013-08-05 08:06:00,
2013-08-05 04:12:00,63.5,53.9,27.99,NNE,30,0.0,0.0,71,-99.99,,,-99.99,WSDL version 420,2013-08-05 08:12:00,
2013-08-05 04:21:00,63.4,53.9,27.99,NE,38,0.0,0.0,71,-99.99,,,-99.99,WSDL version 420,2013-08-05 08:21:00,
2013-08-05 04:26:00,63.3,53.8,27.99,NE,45,0.0,0.0,71,-99.99,,,-99.99,WSDL version 420,2013-08-05 08:26:00,
2013-08-05 04:31:00,63.2,53.7,27.99,NE,45,0.0,0.0,71,-99.99,,,-99.99,WSDL version 420,2013-08-05 08:31:00,
2013-08-05 04:36:00,63.1,53.5,27.99,NE,45,0.0,0.0,71,-99.99,,,-99.99,WSDL version 420,2013-08-05 08:36:00,
2013-08-05 04:41:00,63.0,53.6,27.99,NE,45,0.0,0.0,72,-99.99,,,-99.99,WSDL version 420,2013-08-05 08:41:00,
2013-08-05 04:46:00,63.0,53.8,27.99,NE,45,0.0,0.0,72,-99.99,,,-99.99,WSDL version 420,2013-08-05 08:46:00,
2013-08-05 04:51:00,63.0,53.8,27.99,NE,45,0.0,0.0,72,-99.99,,,-99.99,WSDL version 420,2013-08-05 08:51:00,
2013-08-05 04:57:00,63.0,53.8,27.99,NE,45,0.0,0.0,72,-99.99,,,-99.99,WSDL version 420,2013-08-05 08:57:00,
2013-08-05 05:06:00,62.6,53.5,27.99,NE,45,0.0,0.0,72,-99.99,,,-99.99,WSDL version 420,2013-08-05 09:06:00,
2013-08-05 05:11:00,62.6,53.5,27.99,ENE,68,0.0,0.0,72,-99.99,,,-99.99,WSDL version 420,2013-08-05 09:11:00,
2013-08-05 05:16:00,62.6,53.5,27.99,SW,233,0.0,0.0,72,-99.99,,,-99.99,WSDL version 420,2013-08-05 09:16:00,
2013-08-05 05:21:00,62.4,53.7,27.99,North,8,0.0,0.0,73,-99.99,,,-99.99,WSDL version 420,2013-08-05 09:21:00,
2013-08-05 05:26:00,62.4,53.7,27.99,ENE,68,0.0,0.0,73,-99.99,,,-99.99,WSDL version 420,2013-08-05 09:26:00,
2013-08-05 05:31:00,62.3,53.5,27.99,ENE,68,0.0,0.0,73,-99.99,,,-99.99,WSDL version 420,2013-08-05 09:31:00,
2013-08-05 05:36:00,62.1,53.4,27.99,ENE,68,0.0,0.0,73,-99.99,,,-99.99,WSDL version 420,2013-08-05 09:36:00,
2013-08-05 05:41:00,62.2,53.4,27.99,ENE,68,0.0,0.0,73,-99.99,,,-99.99,WSDL version 420,2013-08-05 09:41:00,
2013-08-05 05:46:00,62.2,53.4,27.99,ENE,68,0.0,0.0,73,-99.99,,,-99.99,WSDL version 420,2013-08-05 09:46:00,
2013-08-05 05:51:00,62.1,53.3,27.99,ENE,68,0.0,0.0,73,-99.99,,,-99.99,WSDL version 420,2013-08-05 09:51:00,
2013-08-05 05:56:00,62.0,53.3,27.99,ENE,68,0.0,0.0,73,-99.99,,,-99.99,WSDL version 420,2013-08-05 09:56:00,
2013-08-05 06:01:00,61.9,53.2,27.99,ENE,68,0.0,0.0,73,-99.99,,,-99.99,WSDL version 420,2013-08-05 10:01:00,
2013-08-05 06:10:00,61.9,53.1,27.99,ENE,68,0.0,0.0,73,-99.99,,,-99.99,WSDL version 420,2013-08-05 10:10:00,
2013-08-05 06:15:00,61.8,53.0,27.99,ENE,68,0.0,0.0,73,-99.99,,,-99.99,WSDL version 420,2013-08-05 10:15:00,
2013-08-05 06:22:00,61.7,53.2,27.99,ENE,68,0.0,0.0,74,-99.99,,,-99.99,WSDL version 420,2013-08-05 10:22:00,
2013-08-05 06:27:00,61.8,53.5,27.99,ENE,68,0.0,0.0,74,-99.99,,,-99.99,WSDL version 420,2013-08-05 10:27:00,
2013-08-05 06:32:00,61.9,53.5,27.99,ENE,68,0.0,0.0,74,-99.99,,,-99.99,WSDL version 420,2013-08-05 10:32:00,
2013-08-05 06:37:00,61.9,53.5,27.99,ENE,68,0.0,0.0,74,-99.99,,,-99.99,WSDL version 420,2013-08-05 10:37:00,
2013-08-05 06:42:00,61.9,53.5,27.99,ENE,68,0.0,0.0,74,-99.99,,,-99.99,WSDL version 420,2013-08-05 10:42:00,
2013-08-05 06:47:00,61.8,53.4,27.99,ENE,68,0.0,0.0,74,-99.99,,,-99.99,WSDL version 420,2013-08-05 10:47:00,
2013-08-05 06:52:00,61.7,53.3,27.99,ENE,68,0.0,0.0,74,-99.99,,,-99.99,WSDL version 420,2013-08-05 10:52:00,
2013-08-05 06:57:00,61.7,53.3,27.99,ENE,68,0.0,0.0,74,-99.99,,,-99.99,WSDL version 420,2013-08-05 10:57:00,
2013-08-05 07:02:00,61.6,53.5,27.99,ENE,68,0.0,0.0,74,-99.99,,,-99.99,WSDL version 420,2013-08-05 11:02:00,
2013-08-05 07:07:00,61.4,53.1,27.99,ENE,68,0.0,0.0,74,-99.99,,,-99.99,WSDL version 420,2013-08-05 11:07:00,
2013-08-05 07:12:00,61.6,53.6,27.99,ENE,68,0.0,0.0,75,-99.99,,,-99.99,WSDL version 420,2013-08-05 11:12:00,
2013-08-05 07:17:00,61.7,53.7,27.99,ENE,68,0.0,0.0,75,-99.99,,,-99.99,WSDL version 420,2013-08-05 11:17:00,
2013-08-05 07:23:00,61.9,54.0,27.99,ENE,68,0.0,0.0,76,-99.99,,,-99.99,WSDL version 420,2013-08-05 11:23:00,
2013-08-05 07:32:00,61.9,54.2,27.99,ENE,68,0.0,0.0,76,-99.99,,,-99.99,WSDL version 420,2013-08-05 11:32:00,
2013-08-05 07:38:00,62.1,54.4,27.99,ENE,68,0.0,0.0,76,-99.99,,,-99.99,WSDL version 420,2013-08-05 11:38:00,
2013-08-05 07:47:00,62.2,54.9,27.99,ENE,68,0.0,0.0,77,-99.99,,,-99.99,WSDL version 420,2013-08-05 11:47:00,
2013-08-05 07:52:00,62.4,55.1,27.99,ENE,68,0.0,0.0,77,-99.99,,,-99.99,WSDL version 420,2013-08-05 11:52:00,
2013-08-05 07:57:00,62.4,55.1,27.99,ENE,68,0.0,0.0,77,-99.99,,,-99.99,WSDL version 420,2013-08-05 11:57:00,
2013-08-05 08:02:00,62.5,55.2,27.99,ENE,68,0.0,0.0,77,-99.99,,,-99.99,WSDL version 420,2013-08-05 12:02:00,
2013-08-05 08:09:00,62.6,55.3,27.99,ENE,68,0.0,0.0,77,-99.99,,,-99.99,WSDL version 420,2013-08-05 12:09:00,
2013-08-05 08:14:00,62.8,55.5,27.99,ENE,68,0.0,0.0,77,-99.99,,,-99.99,WSDL version 420,2013-08-05 12:14:00,
2013-08-05 08:19:00,62.9,55.6,27.99,ENE,68,0.0,0.0,77,-99.99,,,-99.99,WSDL version 420,2013-08-05 12:19:00,
2013-08-05 08:24:00,63.0,55.6,28.02,ENE,68,0.0,0.0,77,-99.99,,,-99.99,WSDL version 420,2013-08-05 12:24:00,
2013-08-05 08:29:00,63.1,55.8,28.02,South,180,0.0,0.0,77,-99.99,,,-99.99,WSDL version 420,2013-08-05 12:29:00,
2013-08-05 08:35:00,63.1,55.8,28.02,SE,135,0.0,0.0,77,-99.99,,,-99.99,WSDL version 420,2013-08-05 12:35:00,
2013-08-05 08:44:00,63.4,56.1,27.99,SSW,203,0.0,0.0,77,-99.99,,,-99.99,WSDL version 420,2013-08-05 12:44:00,
2013-08-05 08:49:00,63.7,56.2,27.99,SW,225,0.0,0.0,76,-99.99,,,-99.99,WSDL version 420,2013-08-05 12:49:00,
2013-08-05 08:54:00,64.1,56.4,28.02,SW,225,0.0,0.0,76,0.00,,,0.00,WSDL version 420,2013-08-05 12:54:00,
2013-08-05 08:59:00,64.3,56.6,28.02,SW,225,0.0,0.0,76,0.00,,,0.00,WSDL version 420,2013-08-05 12:59:00,
2013-08-05 09:04:00,64.7,57.0,28.02,South,180,0.0,0.0,76,-99.99,,,-99.99,WSDL version 420,2013-08-05 13:04:00,
2013-08-05 09:09:00,64.9,56.9,28.02,ESE,120,0.0,0.0,75,-99.99,,,-99.99,WSDL version 420,2013-08-05 13:09:00,
2013-08-05 09:14:00,65.1,57.0,28.02,NE,39,0.0,0.0,75,-99.99,,,-99.99,WSDL version 420,2013-08-05 13:14:00,
2013-08-05 09:19:00,65.3,56.9,28.02,WSW,248,0.0,0.0,74,0.00,,,0.00,WSDL version 420,2013-08-05 13:19:00,
2013-08-05 09:24:00,65.5,57.0,28.02,SSW,203,0.0,0.0,74,-99.99,,,-99.99,WSDL version 420,2013-08-05 13:24:00,
2013-08-05 09:29:00,65.7,57.0,28.02,North,11,0.0,0.0,73,-99.99,,,-99.99,WSDL version 420,2013-08-05 13:29:00,
2013-08-05 09:34:00,66.0,57.1,28.02,North,360,0.0,0.0,73,0.00,,,0.00,WSDL version 420,2013-08-05 13:34:00,
2013-08-05 09:39:00,66.2,56.9,28.02,SE,135,0.0,0.0,72,-99.99,,,-99.99,WSDL version 420,2013-08-05 13:39:00,
2013-08-05 09:44:00,66.5,57.1,28.02,SSW,203,0.0,0.0,71,0.00,,,0.00,WSDL version 420,2013-08-05 13:44:00,
2013-08-05 09:49:00,66.7,57.0,28.02,East,83,0.0,0.0,71,-99.99,,,-99.99,WSDL version 420,2013-08-05 13:49:00,
2013-08-05 09:59:00,67.3,57.6,27.99,NNW,338,0.0,0.0,71,-99.99,,,-99.99,WSDL version 420,2013-08-05 13:59:00,
2013-08-05 10:07:00,67.6,57.6,27.99,WSW,255,0.0,0.0,70,-99.99,,,-99.99,WSDL version 420,2013-08-05 14:07:00,
2013-08-05 10:17:00,68.1,57.5,27.99,South,191,0.0,0.0,69,0.00,,,0.00,WSDL version 420,2013-08-05 14:17:00,
2013-08-05 10:27:00,68.5,58.0,27.99,SSE,165,0.0,0.0,69,-99.99,,,-99.99,WSDL version 420,2013-08-05 14:27:00,
2013-08-05 10:36:00,69.6,58.5,27.99,ESE,113,0.0,0.0,68,-99.99,,,-99.99,WSDL version 420,2013-08-05 14:36:00,
2013-08-05 10:46:00,70.0,58.4,27.99,SW,214,0.0,0.0,66,-99.99,,,-99.99,WSDL version 420,2013-08-05 14:46:00,
2013-08-05 10:51:00,70.2,58.3,27.99,NNE,23,0.0,0.0,66,-99.99,,,-99.99,WSDL version 420,2013-08-05 14:51:00,
2013-08-05 11:02:00,70.8,58.0,27.99,ENE,68,0.0,0.0,64,-99.99,,,-99.99,WSDL version 420,2013-08-05 15:02:00,
2013-08-05 11:07:00,70.8,57.8,27.99,South,180,0.6,0.9,63,-99.99,,,-99.99,WSDL version 420,2013-08-05 15:07:00,
2013-08-05 11:13:00,70.8,57.6,27.99,NE,45,0.0,0.9,63,-99.99,,,-99.99,WSDL version 420,2013-08-05 15:13:00,
2013-08-05 11:21:00,71.4,58.2,27.99,East,90,0.0,1.6,63,-99.99,,,-99.99,WSDL version 420,2013-08-05 15:21:00,
2013-08-05 11:27:00,71.7,58.4,27.99,South,180,0.9,2.9,63,-99.99,,,-99.99,WSDL version 420,2013-08-05 15:27:00,
2013-08-05 11:35:00,72.3,58.5,27.99,SW,225,0.0,0.9,62,-99.99,,,-99.99,WSDL version 420,2013-08-05 15:35:00,
2013-08-05 11:40:00,72.4,58.7,27.99,SW,233,0.3,0.9,62,-99.99,,,-99.99,WSDL version 420,2013-08-05 15:40:00,
2013-08-05 11:50:00,72.8,58.1,27.99,SSW,203,0.9,3.1,59,-99.99,,,-99.99,WSDL version 420,2013-08-05 15:50:00,
2013-08-05 11:55:00,72.6,57.2,27.99,South,188,0.0,2.5,58,-99.99,,,-99.99,WSDL version 420,2013-08-05 15:55:00,
2013-08-05 12:00:00,72.5,57.4,27.99,West,263,0.0,0.9,59,-99.99,,,-99.99,WSDL version 420,2013-08-05 16:00:00,
2013-08-05 12:05:00,72.5,57.4,27.99,West,270,0.0,0.9,59,-99.99,,,-99.99,WSDL version 420,2013-08-05 16:05:00,
2013-08-05 12:10:00,73.1,58.1,27.99,SW,218,1.5,2.2,59,-99.99,,,-99.99,WSDL version 420,2013-08-05 16:10:00,
2013-08-05 12:15:00,73.5,57.6,27.99,ESE,120,1.0,2.2,58,-99.99,,,-99.99,WSDL version 420,2013-08-05 16:15:00,
2013-08-05 12:20:00,73.5,57.4,27.99,South,180,0.0,3.4,57,-99.99,,,-99.99,WSDL version 420,2013-08-05 16:20:00,
2013-08-05 12:30:00,74.4,58.4,27.96,South,180,0.0,2.0,57,-99.99,,,-99.99,WSDL version 420,2013-08-05 16:30:00,
2013-08-05 12:35:00,74.5,58.3,27.96,East,98,0.6,2.0,57,-99.99,,,-99.99,WSDL version 420,2013-08-05 16:35:00,
2013-08-05 12:40:00,74.7,58.0,27.99,WNW,298,0.0,0.9,55,-99.99,,,-99.99,WSDL version 420,2013-08-05 16:40:00,
2013-08-05 12:45:00,75.2,58.2,27.99,SE,143,0.0,0.0,55,-99.99,,,-99.99,WSDL version 420,2013-08-05 16:45:00,
2013-08-05 12:50:00,75.5,57.5,27.99,SE,135,1.1,2.7,54,-99.99,,,-99.99,WSDL version 420,2013-08-05 16:50:00,
2013-08-05 12:55:00,75.6,57.1,27.96,South,169,0.6,2.7,53,-99.99,,,-99.99,WSDL version 420,2013-08-05 16:55:00,
2013-08-05 13:00:00,75.9,57.5,27.96,West,270,0.9,1.6,53,-99.99,,,-99.99,WSDL version 420,2013-08-05 17:00:00,
2013-08-05 13:05:00,76.0,57.2,27.96,NNE,23,1.3,3.1,51,-99.99,,,-99.99,WSDL version 420,2013-08-05 17:05:00,
2013-08-05 13:12:00,76.3,57.1,27.96,NNW,338,0.6,2.7,51,-99.99,,,-99.99,WSDL version 420,2013-08-05 17:12:00,
2013-08-05 13:17:00,76.9,57.4,27.96,East,90,0.0,2.7,51,-99.99,,,-99.99,WSDL version 420,2013-08-05 17:17:00,
2013-08-05 13:22:00,77.2,57.5,27.96,ENE,68,0.5,1.6,50,-99.99,,,-99.99,WSDL version 420,2013-08-05 17:22:00,
2013-08-05 13:27:00,76.9,56.8,27.96,WSW,240,1.0,1.6,50,-99.99,,,-99.99,WSDL version 420,2013-08-05 17:27:00,
2013-08-05 13:32:00,77.0,56.1,27.96,ESE,117,1.0,3.4,48,-99.99,,,-99.99,WSDL version 420,2013-08-05 17:32:00,
2013-08-05 13:37:00,77.4,55.8,27.96,WNW,293,1.6,3.4,47,-99.99,,,-99.99,WSDL version 420,2013-08-05 17:37:00,
2013-08-05 13:42:00,77.4,56.0,27.96,North,353,0.5,2.0,47,-99.99,,,-99.99,WSDL version 420,2013-08-05 17:42:00,
2013-08-05 13:47:00,76.8,54.8,27.96,NNW,345,0.0,2.0,47,-99.99,,,-99.99,WSDL version 420,2013-08-05 17:47:00,
2013-08-05 13:52:00,76.6,54.7,27.96,NNW,338,0.0,2.0,47,-99.99,,,-99.99,WSDL version 420,2013-08-05 17:52:00,
2013-08-05 13:57:00,76.9,55.5,27.96,WSW,248,1.3,2.0,47,-99.99,,,-99.99,WSDL version 420,2013-08-05 17:57:00,
2013-08-05 14:02:00,77.5,55.7,27.96,SW,225,1.3,2.0,47,-99.99,,,-99.99,WSDL version 420,2013-08-05 18:02:00,
2013-08-05 14:07:00,77.2,55.6,27.96,East,96,1.3,2.0,48,-99.99,,,-99.99,WSDL version 420,2013-08-05 18:07:00,
2013-08-05 14:13:00,77.1,55.3,27.94,NW,315,1.3,2.0,47,-99.99,,,-99.99,WSDL version 420,2013-08-05 18:13:00,
2013-08-05 14:18:00,77.8,55.4,27.94,SW,225,0.9,1.6,45,-99.99,,,-99.99,WSDL version 420,2013-08-05 18:18:00,
2013-08-05 14:27:00,78.4,55.1,27.94,WNW,293,1.6,1.6,45,-99.99,,,-99.99,WSDL version 420,2013-08-05 18:27:00,
2013-08-05 14:32:00,78.8,56.0,27.94,SE,128,0.0,1.6,45,-99.99,,,-99.99,WSDL version 420,2013-08-05 18:32:00,
2013-08-05 14:38:00,79.0,55.7,27.94,WSW,248,3.4,3.4,44,-99.99,,,-99.99,WSDL version 420,2013-08-05 18:38:00,
2013-08-05 14:47:00,79.3,55.6,27.94,WSW,248,2.7,3.4,44,-99.99,,,-99.99,WSDL version 420,2013-08-05 18:47:00,
2013-08-05 14:53:00,79.7,56.1,27.94,WSW,248,2.7,2.7,44,-99.99,,,-99.99,WSDL version 420,2013-08-05 18:53:00,
2013-08-05 15:03:00,79.1,54.9,27.94,North,-999,-999.0,-999.0,44,-99.99,,,-99.99,WSDL version 420,2013-08-05 19:03:00,
2013-08-05 15:08:00,79.2,54.3,27.94,North,-999,-999.0,-999.0,42,-99.99,,,-99.99,WSDL version 420,2013-08-05 19:08:00,
2013-08-05 15:13:00,79.2,54.4,27.94,SSW,203,3.8,3.8,43,-99.99,,,-99.99,WSDL version 420,2013-08-05 19:13:00,
2013-08-05 15:22:00,80.1,55.2,27.94,NW,315,2.9,3.8,43,-99.99,,,-99.99,WSDL version 420,2013-08-05 19:22:00,
2013-08-05 15:27:00,80.6,55.4,27.94,NW,315,2.9,2.9,42,-99.99,,,-99.99,WSDL version 420,2013-08-05 19:27:00,
2013-08-05 15:32:00,80.7,55.0,27.94,ENE,75,2.5,2.9,41,-99.99,,,-99.99,WSDL version 420,2013-08-05 19:32:00,
2013-08-05 15:37:00,80.8,55.0,27.94,East,90,2.5,2.9,41,-99.99,,,-99.99,WSDL version 420,2013-08-05 19:37:00,
2013-08-05 15:42:00,81.0,55.3,27.94,NNE,23,3.1,3.1,41,-99.99,,,-99.99,WSDL version 420,2013-08-05 19:42:00,
2013-08-05 15:47:00,80.8,54.7,27.94,SSE,158,1.3,3.1,40,-99.99,,,-99.99,WSDL version 420,2013-08-05 19:47:00,
2013-08-05 15:52:00,80.8,54.7,27.94,SSE,158,2.5,3.1,41,-99.99,,,-99.99,WSDL version 420,2013-08-05 19:52:00,
2013-08-05 15:57:00,80.9,54.8,27.94,West,278,2.4,3.1,40,-99.99,,,-99.99,WSDL version 420,2013-08-05 19:57:00,
2013-08-05 16:02:00,80.9,54.3,27.94,SSW,203,3.6,3.6,40,-99.99,,,-99.99,WSDL version 420,2013-08-05 20:02:00,
2013-08-05 16:07:00,80.8,54.1,27.94,WNW,293,1.6,3.6,40,-99.99,,,-99.99,WSDL version 420,2013-08-05 20:07:00,
2013-08-05 16:12:00,80.8,54.0,27.94,NNE,23,0.9,3.4,40,-99.99,,,-99.99,WSDL version 420,2013-08-05 20:12:00,
2013-08-05 16:17:00,80.8,53.6,27.94,WSW,248,2.2,2.7,39,-99.99,,,-99.99,WSDL version 420,2013-08-05 20:17:00,
2013-08-05 16:22:00,81.0,53.7,27.94,North,360,2.0,2.7,39,-99.99,,,-99.99,WSDL version 420,2013-08-05 20:22:00,
2013-08-05 16:27:00,81.0,53.9,27.94,NE,38,1.6,2.5,39,-99.99,,,-99.99,WSDL version 420,2013-08-05 20:27:00,
2013-08-05 16:32:00,80.9,53.7,27.94,NNE,23,1.3,2.0,39,-99.99,,,-99.99,WSDL version 420,2013-08-05 20:32:00,
2013-08-05 16:37:00,81.3,54.5,27.94,North,360,2.0,2.0,40,-99.99,,,-99.99,WSDL version 420,2013-08-05 20:37:00,
2013-08-05 16:42:00,81.3,54.7,27.94,SSW,203,2.7,2.7,40,-99.99,,,-99.99,WSDL version 420,2013-08-05 20:42:00,
2013-08-05 16:47:00,81.3,54.5,27.94,SSW,203,0.0,2.7,40,-99.99,,,-99.99,WSDL version 420,2013-08-05 20:47:00,
2013-08-05 16:53:00,80.8,53.5,27.91,SSW,203,0.0,0.9,39,-99.99,,,-99.99,WSDL version 420,2013-08-05 20:53:00,
2013-08-05 17:02:00,81.1,54.5,27.91,NW,315,0.9,1.1,40,-99.99,,,-99.99,WSDL version 420,2013-08-05 21:02:00,
2013-08-05 17:07:00,81.1,54.0,27.91,NW,315,0.9,0.9,39,-99.99,,,-99.99,WSDL version 420,2013-08-05 21:07:00,
2013-08-05 17:14:00,81.0,54.5,27.91,NNE,23,2.2,2.2,40,-99.99,,,-99.99,WSDL version 420,2013-08-05 21:14:00,
2013-08-05 17:19:00,81.1,54.5,27.91,NNE,23,2.2,2.2,40,-99.99,,,-99.99,WSDL version 420,2013-08-05 21:19:00,
2013-08-05 17:24:00,81.1,54.5,27.91,WNW,293,0.9,2.2,40,-99.99,,,-99.99,WSDL version 420,2013-08-05 21:24:00,
2013-08-05 17:29:00,81.2,54.6,27.91,WNW,293,0.9,0.9,40,-99.99,,,-99.99,WSDL version 420,2013-08-05 21:29:00,
2013-08-05 17:34:00,80.7,54.4,27.91,SSW,203,2.1,2.7,41,-99.99,,,-99.99,WSDL version 420,2013-08-05 21:34:00,
2013-08-05 17:39:00,80.7,54.6,27.91,NNE,23,0.9,2.7,40,-99.99,,,-99.99,WSDL version 420,2013-08-05 21:39:00,
2013-08-05 17:44:00,80.8,54.2,27.91,WSW,248,1.9,2.9,40,-99.99,,,-99.99,WSDL version 420,2013-08-05 21:44:00,
2013-08-05 17:49:00,80.9,54.8,27.91,WSW,248,1.1,2.9,40,-99.99,,,-99.99,WSDL version 420,2013-08-05 21:49:00,
2013-08-05 17:54:00,80.5,54.7,27.91,WSW,248,1.1,1.6,41,-99.99,,,-99.99,WSDL version 420,2013-08-05 21:54:00,
2013-08-05 17:59:00,80.2,54.3,27.91,NNE,23,1.6,1.6,41,-99.99,,,-99.99,WSDL version 420,2013-08-05 21:59:00,
2013-08-05 18:04:00,80.1,54.3,27.91,NE,45,1.6,1.6,41,-99.99,,,-99.99,WSDL version 420,2013-08-05 22:04:00,
2013-08-05 18:09:00,80.0,54.4,27.94,NNE,23,3.1,3.1,42,-99.99,,,-99.99,WSDL version 420,2013-08-05 22:09:00,
2013-08-05 18:17:00,79.9,54.5,27.94,SSE,158,2.2,3.1,42,-99.99,,,-99.99,WSDL version 420,2013-08-05 22:17:00,
2013-08-05 18:22:00,79.9,54.8,27.94,NW,308,2.2,3.1,42,-99.99,,,-99.99,WSDL version 420,2013-08-05 22:22:00,
2013-08-05 18:27:00,79.5,53.8,27.94,North,11,0.6,3.1,41,-99.99,,,-99.99,WSDL version 420,2013-08-05 22:27:00,
2013-08-05 18:37:00,79.4,53.7,27.94,SE,135,0.3,4.0,41,-99.99,,,-99.99,WSDL version 420,2013-08-05 22:37:00,
2013-08-05 18:46:00,79.7,53.5,27.94,NNW,338,1.1,2.9,41,-99.99,,,-99.99,WSDL version 420,2013-08-05 22:46:00,
2013-08-05 18:52:00,79.1,53.4,27.94,NNW,338,1.1,2.9,41,-99.99,,,-99.99,WSDL version 420,2013-08-05 22:52:00,
2013-08-05 18:57:00,79.0,53.1,27.94,NW,315,0.0,1.1,41,-99.99,,,-99.99,WSDL version 420,2013-08-05 22:57:00,
2013-08-05 19:06:00,78.6,53.0,27.94,ENE,60,1.5,2.2,41,-99.99,,,-99.99,WSDL version 420,2013-08-05 23:06:00,
2013-08-05 19:11:00,78.2,52.8,27.94,ENE,68,2.2,2.2,41,-99.99,,,-99.99,WSDL version 420,2013-08-05 23:11:00,
2013-08-05 19:16:00,77.9,52.3,27.94,ENE,68,2.2,2.2,41,-99.99,,,-99.99,WSDL version 420,2013-08-05 23:16:00,
2013-08-05 19:22:00,77.8,52.3,27.94,North,-999,-999.0,-999.0,41,-99.99,,,-99.99,WSDL version 420,2013-08-05 23:22:00,
2013-08-05 19:31:00,77.5,51.9,27.94,NNE,23,0.0,0.9,41,-99.99,,,-99.99,WSDL version 420,2013-08-05 23:31:00,
2013-08-05 19:36:00,77.3,51.8,27.94,NNE,23,0.0,0.0,41,-99.99,,,-99.99,WSDL version 420,2013-08-05 23:36:00,
2013-08-05 19:41:00,77.0,51.7,27.94,NNE,23,0.0,0.0,42,-99.99,,,-99.99,WSDL version 420,2013-08-05 23:41:00,
2013-08-05 19:46:00,76.6,51.9,27.94,North,-999,-999.0,-999.0,42,-99.99,,,-99.99,WSDL version 420,2013-08-05 23:46:00,
2013-08-05 19:52:00,76.3,52.2,27.94,North,-999,-999.0,-999.0,43,-99.99,,,-99.99,WSDL version 420,2013-08-05 23:52:00,
2013-08-05 20:01:00,75.9,51.8,27.94,SSW,203,0.0,0.0,43,-99.99,,,-99.99,WSDL version 420,2013-08-06 00:01:00,
2013-08-05 20:06:00,75.6,51.5,27.94,SSW,203,0.0,0.0,43,-99.99,,,-99.99,WSDL version 420,2013-08-06 00:06:00,
2013-08-05 20:11:00,75.3,51.5,27.94,SSW,203,0.9,0.9,43,-99.99,,,-99.99,WSDL version 420,2013-08-06 00:11:00,
2013-08-05 20:16:00,74.9,51.5,27.94,SSW,203,0.9,0.9,44,-99.99,,,-99.99,WSDL version 420,2013-08-06 00:16:00,
2013-08-05 20:21:00,74.6,51.3,27.94,East,90,0.9,0.9,44,-99.99,,,-99.99,WSDL version 420,2013-08-06 00:21:00,
2013-08-05 20:26:00,74.2,51.6,27.94,NNE,23,0.0,0.9,45,-99.99,,,-99.99,WSDL version 420,2013-08-06 00:26:00,
2013-08-05 20:32:00,73.8,51.9,27.94,NNE,23,0.0,0.0,47,-99.99,,,-99.99,WSDL version 420,2013-08-06 00:32:00,
2013-08-05 20:41:00,73.0,52.4,27.94,NE,45,0.0,0.0,49,-99.99,,,-99.99,WSDL version 420,2013-08-06 00:41:00,
2013-08-05 20:46:00,72.5,52.3,27.94,ENE,68,0.0,0.0,49,-99.99,,,-99.99,WSDL version 420,2013-08-06 00:46:00,
2013-08-05 20:52:00,72.1,52.3,27.94,ENE,68,0.0,0.0,50,-99.99,,,-99.99,WSDL version 420,2013-08-06 00:52:00,
2013-08-05 21:02:00,71.9,52.2,27.94,ENE,68,0.0,0.0,50,-99.99,,,-99.99,WSDL version 420,2013-08-06 01:02:00,
2013-08-05 21:12:00,71.4,52.7,27.94,North,-999,-999.0,-999.0,52,-99.99,,,-99.99,WSDL version 420,2013-08-06 01:12:00,
2013-08-05 21:21:00,70.3,52.4,27.94,NNE,23,0.0,0.0,53,-99.99,,,-99.99,WSDL version 420,2013-08-06 01:21:00,
2013-08-05 21:28:00,69.7,52.5,27.94,ENE,68,0.0,0.0,55,-99.99,,,-99.99,WSDL version 420,2013-08-06 01:28:00,
2013-08-05 21:33:00,69.5,52.6,27.94,NE,45,0.0,0.0,55,-99.99,,,-99.99,WSDL version 420,2013-08-06 01:33:00,
2013-08-05 21:38:00,69.6,53.0,27.94,ENE,68,0.0,0.0,56,-99.99,,,-99.99,WSDL version 420,2013-08-06 01:38:00,
2013-08-05 21:43:00,69.4,53.0,27.94,ENE,68,0.0,0.0,56,-99.99,,,-99.99,WSDL version 420,2013-08-06 01:43:00,
2013-08-05 21:48:00,69.1,52.8,27.94,ENE,68,0.0,0.0,56,-99.99,,,-99.99,WSDL version 420,2013-08-06 01:48:00,
2013-08-05 21:53:00,69.0,52.6,27.94,NE,45,0.0,0.0,56,-99.99,,,-99.99,WSDL version 420,2013-08-06 01:53:00,
2013-08-05 21:58:00,68.5,52.4,27.94,NE,45,0.0,0.0,57,-99.99,,,-99.99,WSDL version 420,2013-08-06 01:58:00,
2013-08-05 22:03:00,68.2,52.4,27.94,NE,45,0.0,0.0,57,-99.99,,,-99.99,WSDL version 420,2013-08-06 02:03:00,
2013-08-05 22:08:00,68.2,52.4,27.94,North,0,0.0,0.0,57,-99.99,,,-99.99,WSDL version 420,2013-08-06 02:08:00,
2013-08-05 22:13:00,68.2,52.4,27.94,North,-999,-999.0,-999.0,57,-99.99,,,-99.99,WSDL version 420,2013-08-06 02:13:00,
2013-08-05 22:19:00,67.9,52.6,27.94,North,-999,-999.0,-999.0,58,-99.99,,,-99.99,WSDL version 420,2013-08-06 02:19:00,
2013-08-05 22:24:00,67.8,52.5,27.94,North,-999,-999.0,-999.0,58,-99.99,,,-99.99,WSDL version 420,2013-08-06 02:24:00,
2013-08-05 22:33:00,67.6,52.8,27.94,ENE,68,0.0,0.0,59,-99.99,,,-99.99,WSDL version 420,2013-08-06 02:33:00,
2013-08-05 22:38:00,67.4,52.6,27.94,ENE,68,0.0,0.0,59,-99.99,,,-99.99,WSDL version 420,2013-08-06 02:38:00,
2013-08-05 22:43:00,67.3,52.5,27.94,ENE,68,0.0,0.0,59,-99.99,,,-99.99,WSDL version 420,2013-08-06 02:43:00,
2013-08-05 22:48:00,67.2,52.7,27.94,ENE,68,0.0,0.0,60,-99.99,,,-99.99,WSDL version 420,2013-08-06 02:48:00,
2013-08-05 22:54:00,67.0,52.7,27.94,ENE,68,0.0,0.0,60,-99.99,,,-99.99,WSDL version 420,2013-08-06 02:54:00,
2013-08-05 22:59:00,66.9,52.5,27.94,ENE,68,0.0,0.0,60,-99.99,,,-99.99,WSDL version 420,2013-08-06 02:59:00,
2013-08-05 23:08:00,66.7,52.7,27.94,ENE,68,0.0,0.0,61,-99.99,,,-99.99,WSDL version 420,2013-08-06 03:08:00,
2013-08-05 23:13:00,66.4,52.5,27.94,ENE,68,0.0,0.0,61,-99.99,,,-99.99,WSDL version 420,2013-08-06 03:13:00,
2013-08-05 23:18:00,66.1,52.4,27.94,NE,34,0.0,0.0,61,-99.99,,,-99.99,WSDL version 420,2013-08-06 03:18:00,
2013-08-05 23:23:00,66.0,52.6,27.91,North,11,0.0,0.0,62,-99.99,,,-99.99,WSDL version 420,2013-08-06 03:23:00,
2013-08-05 23:29:00,65.8,52.5,27.91,NNE,23,0.0,0.0,62,-99.99,,,-99.99,WSDL version 420,2013-08-06 03:29:00,
2013-08-05 23:38:00,65.7,52.8,27.91,NNE,23,0.0,0.0,63,-99.99,,,-99.99,WSDL version 420,2013-08-06 03:38:00,
2013-08-05 23:43:00,65.7,52.8,27.91,NNE,23,0.0,0.0,63,-99.99,,,-99.99,WSDL version 420,2013-08-06 03:43:00,
2013-08-05 23:48:00,65.3,52.4,27.91,NNE,23,0.0,0.0,63,-99.99,,,-99.99,WSDL version 420,2013-08-06 03:48:00,
2013-08-05 23:53:00,65.2,52.4,27.94,NNE,23,0.0,0.0,64,-99.99,,,-99.99,WSDL version 420,2013-08-06 03:53:00,
2013-08-05 23:59:00,64.9,52.3,27.94,NNE,23,0.0,0.0,64,-99.99,,,-99.99,WSDL version 420,2013-08-06 03:59:00,